Time;durP1;ratioP1;P1;durP2;ratioP2;P2;SDS_P1;SDS_P2;PMS_P1;PMS_P2;Temp;Humidity;BMP_temperature;BMP_pressure;BME280_temperature;BME280_humidity;BME280_pressure;Samples;Min_cycle;Max_cycle;Signal;HPM_P1;HPM_P2
2023/03/30 00:01:45;;;;;;;11.68;7.30;;;;;;;6.93;68.31;100437.03;4378819;32;33726;-78
2023/03/30 00:04:13;;;;;;;11.10;6.95;;;;;;;6.24;71.00;100439.91;4382041;32;33215;-79
2023/03/30 00:06:41;;;;;;;11.43;6.72;;;;;;;6.15;71.95;100441.78;4390289;32;33720;-79
2023/03/30 00:09:09;;;;;;;11.02;6.25;;;;;;;6.10;72.25;100434.63;4399222;32;34730;-77
2023/03/30 00:11:37;;;;;;;11.20;6.57;;;;;;;6.47;70.71;100437.28;4401131;32;33548;-79
2023/03/30 00:14:04;;;;;;;10.68;6.35;;;;;;;6.34;70.95;100438.88;4388571;32;32144;-78
2023/03/30 00:16:32;;;;;;;9.80;5.50;;;;;;;6.69;69.88;100425.91;4375126;32;33637;-79
2023/03/30 00:19:00;;;;;;;9.10;6.00;;;;;;;8.02;64.68;100418.56;4392756;32;34648;-76
2023/03/30 00:21:28;;;;;;;9.48;5.45;;;;;;;8.27;63.61;100417.56;4381883;32;33948;-77
2023/03/30 00:23:55;;;;;;;9.38;5.65;;;;;;;8.50;61.89;100408.72;4402208;32;33785;-78
2023/03/30 00:26:23;;;;;;;10.27;5.55;;;;;;;8.96;60.42;100420.97;4416507;32;33886;-78
2023/03/30 00:28:50;;;;;;;10.82;5.68;;;;;;;8.92;60.40;100416.44;4403887;32;34715;-78
2023/03/30 00:31:18;;;;;;;10.23;5.47;;;;;;;8.23;61.71;100415.56;4389373;32;34731;-79
2023/03/30 00:33:46;;;;;;;11.00;5.83;;;;;;;7.03;66.46;100411.13;4391933;32;33553;-78
2023/03/30 00:36:15;;;;;;;10.45;6.10;;;;;;;6.85;67.54;100415.88;4395698;32;33826;-76
2023/03/30 00:38:44;;;;;;;8.73;5.43;;;;;;;7.06;67.28;100420.75;4384258;32;33637;-78
2023/03/30 00:41:12;;;;;;;9.80;5.72;;;;;;;6.96;67.79;100420.91;4396898;32;92741;-76
2023/03/30 00:43:56;;;;;;;10.70;5.90;;;;;;;6.79;68.57;100410.31;4402207;32;33423;-77
2023/03/30 00:46:24;;;;;;;9.80;6.47;;;;;;;6.77;68.24;100406.75;4388487;32;33430;-78
2023/03/30 00:48:56;;;;;;;9.27;5.60;;;;;;;6.17;70.37;100396.50;4391768;32;34702;-77
2023/03/30 00:51:26;;;;;;;9.93;6.07;;;;;;;5.90;71.25;100398.81;4368866;32;32241;-78
2023/03/30 00:53:58;;;;;;;11.12;6.22;;;;;;;5.97;72.31;100401.09;4388283;32;33457;-78
2023/03/30 00:56:28;;;;;;;11.12;6.78;;;;;;;6.30;71.84;100391.44;4400831;32;33541;-78
2023/03/30 00:58:56;;;;;;;11.40;6.20;;;;;;;6.53;71.66;100395.66;4389148;32;33811;-78
2023/03/30 01:01:27;;;;;;;11.30;6.78;;;;;;;6.97;69.62;100399.50;4388948;32;33961;-79
2023/03/30 01:03:59;;;;;;;13.13;6.95;;;;;;;7.19;68.49;100392.44;4394284;32;33468;-78
2023/03/30 01:06:28;;;;;;;11.15;6.60;;;;;;;7.43;67.46;100387.16;4381006;32;33483;-78
2023/03/30 01:08:57;;;;;;;11.20;6.53;;;;;;;7.55;67.30;100376.75;4383656;32;33710;-79
2023/03/30 01:11:25;;;;;;;11.57;6.68;;;;;;;7.80;66.16;100369.84;4385347;32;34274;-79
2023/03/30 01:13:59;;;;;;;10.35;6.35;;;;;;;7.93;65.64;100366.34;4406908;32;33241;-77
2023/03/30 01:16:34;;;;;;;13.68;8.27;;;;;;;8.42;63.88;100364.34;4378785;32;34815;-76
2023/03/30 01:19:57;;;;;;;14.27;10.75;;;;;;;8.69;62.62;100353.91;4390610;32;33682;-77
2023/03/30 01:22:28;;;;;;;14.73;9.77;;;;;;;8.38;63.16;100352.00;4330893;32;32614;-78
2023/03/30 01:25:27;;;;;;;15.70;11.23;;;;;;;8.17;64.06;100353.22;4394723;32;32864;-78
2023/03/30 01:27:58;;;;;;;18.80;13.77;;;;;;;8.19;63.78;100354.22;4406204;32;33808;-79
2023/03/30 01:30:54;;;;;;;12.85;8.52;;;;;;;7.98;64.49;100339.19;4406564;32;33987;-76
2023/03/30 01:34:11;;;;;;;11.07;6.55;;;;;;;7.82;65.11;100336.41;4375600;32;33368;-77
2023/03/30 01:36:52;;;;;;;9.67;6.33;;;;;;;7.13;67.78;100350.81;4377073;32;32575;-79
2023/03/30 01:39:58;;;;;;;12.15;6.90;;;;;;;6.98;68.59;100342.06;4391898;32;33219;-78
2023/03/30 01:42:49;;;;;;;13.75;9.13;;;;;;;7.13;67.94;100350.81;4386292;32;32841;-77
2023/03/30 01:45:25;;;;;;;15.45;9.75;;;;;;;7.21;67.66;100336.75;4403503;32;33444;-79
2023/03/30 01:48:19;;;;;;;13.43;8.90;;;;;;;7.41;66.81;100330.34;4420798;32;32943;-79
2023/03/30 01:50:50;;;;;;;14.18;8.52;;;;;;;7.41;66.35;100340.66;4446474;32;32809;-77
2023/03/30 01:53:34;;;;;;;13.88;8.45;;;;;;;7.31;67.40;100339.97;4438233;32;33540;-77
2023/03/30 01:56:14;;;;;;;13.47;8.20;;;;;;;7.20;68.55;100349.53;4431022;32;32465;-77
2023/03/30 01:58:45;;;;;;;15.13;9.23;;;;;;;7.14;68.94;100344.84;4441232;32;32999;-78
2023/03/30 02:01:16;;;;;;;12.93;9.10;;;;;;;7.27;68.42;100333.69;4450936;32;34235;-77
2023/03/30 02:03:46;;;;;;;14.00;9.40;;;;;;;7.32;68.02;100334.00;4449325;32;33496;-78
2023/03/30 02:06:23;;;;;;;12.57;8.50;;;;;;;8.16;65.18;100323.06;4434860;32;33401;-79
2023/03/30 02:08:54;;;;;;;12.90;8.80;;;;;;;7.60;65.73;100329.84;4438097;32;33026;-78
2023/03/30 02:11:24;;;;;;;12.60;8.27;;;;;;;7.53;66.63;100325.09;4428124;32;34511;-78
2023/03/30 02:13:54;;;;;;;12.73;8.47;;;;;;;7.46;66.88;100322.91;4437796;32;33951;-79
2023/03/30 02:16:29;;;;;;;13.00;8.43;;;;;;;7.22;68.12;100319.59;4437201;32;33962;-78
2023/03/30 02:18:59;;;;;;;12.55;7.80;;;;;;;7.37;67.71;100320.62;4433603;32;33171;-78
2023/03/30 02:21:28;;;;;;;13.73;8.90;;;;;;;7.79;66.08;100320.75;4448515;32;34408;-77
2023/03/30 02:23:56;;;;;;;15.07;9.40;;;;;;;7.47;66.07;100301.50;4464671;32;34591;-78
2023/03/30 02:26:26;;;;;;;15.50;10.40;;;;;;;7.29;66.83;100306.34;4458186;32;33850;-78
2023/03/30 02:28:54;;;;;;;18.65;11.40;;;;;;;7.40;67.03;100309.62;4450759;32;33485;-79
2023/03/30 02:31:21;;;;;;;17.37;10.77;;;;;;;7.19;67.54;100315.16;4452085;32;33622;-78
2023/03/30 02:34:23;;;;;;;16.37;11.52;;;;;;;7.20;67.44;100306.62;4436985;32;32407;-78
2023/03/30 02:37:06;;;;;;;18.12;12.18;;;;;;;7.20;67.46;100308.31;4450766;32;32813;-79
2023/03/30 02:40:12;;;;;;;17.12;10.82;;;;;;;7.19;67.67;100307.44;4451283;32;33694;-78
2023/03/30 02:42:46;;;;;;;16.53;11.17;;;;;;;7.26;67.28;100317.34;4451619;32;33816;-78
2023/03/30 02:45:20;;;;;;;16.27;10.90;;;;;;;7.34;67.30;100311.78;4437772;32;33351;-78
2023/03/30 02:47:52;;;;;;;17.02;11.43;;;;;;;7.09;68.00;100302.47;4452565;32;33134;-78
2023/03/30 02:50:36;;;;;;;17.08;11.05;;;;;;;7.25;67.71;100302.66;4391546;32;33076;-78
2023/03/30 02:53:48;;;;;;;16.85;10.98;;;;;;;7.29;67.09;100296.91;4425777;32;32846;-77
2023/03/30 02:56:36;;;;;;;15.18;10.73;;;;;;;7.17;67.71;100306.44;4386075;32;31772;-76
2023/03/30 02:59:11;;;;;;;15.50;11.25;;;;;;;7.26;67.27;100307.03;4387392;32;32858;-76
2023/03/30 03:01:43;;;;;;;17.60;10.52;;;;;;;7.38;66.50;100306.03;4403250;32;32945;-76
2023/03/30 03:04:11;;;;;;;16.52;11.38;;;;;;;7.36;66.54;100315.34;4398635;32;33480;-76
2023/03/30 03:06:39;;;;;;;14.82;10.23;;;;;;;7.70;65.31;100315.00;4399229;32;32530;-76
2023/03/30 03:09:07;;;;;;;14.77;9.80;;;;;;;7.35;66.26;100311.91;4414868;32;32944;-76
2023/03/30 03:11:35;;;;;;;15.43;9.67;;;;;;;7.04;66.75;100299.56;4434993;32;34665;-76
2023/03/30 03:14:03;;;;;;;14.77;9.00;;;;;;;7.09;66.12;100317.91;4398923;32;34557;-76
2023/03/30 03:16:31;;;;;;;15.63;9.52;;;;;;;7.38;65.24;100314.69;4437714;32;34676;-77
2023/03/30 03:19:02;;;;;;;14.15;9.18;;;;;;;7.49;64.74;100310.22;4427506;32;34731;-76
2023/03/30 03:21:29;;;;;;;15.32;9.38;;;;;;;7.42;65.06;100310.63;4401075;32;33702;-76
2023/03/30 03:23:57;;;;;;;13.82;9.50;;;;;;;7.72;64.05;100316.84;4407290;32;33734;-77
2023/03/30 03:26:25;;;;;;;12.95;9.13;;;;;;;7.78;63.55;100314.66;4406506;32;33748;-77
2023/03/30 03:28:53;;;;;;;14.90;8.90;;;;;;;7.52;64.02;100319.84;4401968;32;33177;-77
2023/03/30 03:31:23;;;;;;;13.03;8.87;;;;;;;7.88;63.04;100317.06;4402435;32;33201;-78
2023/03/30 03:33:50;;;;;;;14.38;8.82;;;;;;;7.77;63.13;100315.47;4406015;32;33119;-77
2023/03/30 03:36:18;;;;;;;15.43;9.45;;;;;;;7.57;64.02;100324.53;4432550;32;34311;-77
2023/03/30 03:38:46;;;;;;;13.62;8.93;;;;;;;7.48;64.10;100326.50;4431105;32;33448;-78
2023/03/30 03:41:14;;;;;;;13.25;8.82;;;;;;;7.59;63.59;100328.09;4407736;32;33770;-78
2023/03/30 03:43:42;;;;;;;14.43;9.10;;;;;;;7.68;63.25;100328.66;4452723;32;34663;-76
2023/03/30 03:46:10;;;;;;;13.75;8.48;;;;;;;7.64;63.13;100331.84;4388770;32;34074;-77
2023/03/30 03:48:38;;;;;;;12.60;8.50;;;;;;;7.50;63.65;100326.59;4438217;32;33473;-78
2023/03/30 03:51:07;;;;;;;12.57;8.52;;;;;;;7.39;63.45;100316.47;4429312;32;33560;-77
2023/03/30 03:53:35;;;;;;;13.82;8.48;;;;;;;7.23;64.19;100316.25;4407132;32;34877;-77
2023/03/30 03:56:03;;;;;;;13.18;9.15;;;;;;;7.16;64.30;100304.63;4387104;32;33732;-76
2023/03/30 03:58:30;;;;;;;13.73;9.20;;;;;;;6.85;65.51;100302.56;4441728;32;33639;-77
2023/03/30 04:00:59;;;;;;;15.50;9.30;;;;;;;7.03;65.19;100309.75;4399144;32;33323;-77
2023/03/30 04:03:27;;;;;;;14.98;9.02;;;;;;;7.41;63.65;100293.38;4412282;32;33718;-76
2023/03/30 04:05:59;;;;;;;14.93;8.82;;;;;;;7.19;64.07;100289.38;4418107;32;34695;-79
2023/03/30 04:08:27;;;;;;;14.35;9.32;;;;;;;7.00;64.57;100289.84;4424044;32;33100;-76
2023/03/30 04:11:03;;;;;;;16.50;10.50;;;;;;;7.05;64.64;100292.72;4432253;32;34264;-77
2023/03/30 04:13:31;;;;;;;15.27;10.25;;;;;;;6.91;65.05;100285.78;4408557;32;33039;-76
2023/03/30 04:16:00;;;;;;;16.10;9.18;;;;;;;7.07;64.80;100280.87;4430858;32;34675;-78
2023/03/30 04:18:30;;;;;;;13.80;9.15;;;;;;;7.32;64.32;100272.16;4381326;32;34339;-78
2023/03/30 04:21:01;;;;;;;13.23;8.90;;;;;;;6.87;65.34;100272.66;4377247;32;35826;-78
2023/03/30 04:23:33;;;;;;;15.25;9.35;;;;;;;7.06;64.48;100274.78;4381610;32;34254;-78
2023/03/30 04:26:06;;;;;;;15.45;8.93;;;;;;;7.33;63.74;100282.56;4403522;32;34717;-77
2023/03/30 04:28:35;;;;;;;15.73;8.98;;;;;;;7.54;62.97;100288.22;4397207;32;33101;-78
2023/03/30 04:31:09;;;;;;;13.15;8.77;;;;;;;7.35;63.47;100295.56;4393648;32;33432;-77
2023/03/30 04:33:44;;;;;;;14.77;8.70;;;;;;;7.35;63.35;100295.56;4388251;32;33187;-77
2023/03/30 04:36:17;;;;;;;15.98;9.23;;;;;;;7.25;64.16;100292.38;4392389;32;33374;-77
2023/03/30 04:39:05;;;;;;;16.02;9.13;;;;;;;7.54;63.27;100290.78;4465471;32;33283;-77
2023/03/30 04:41:34;;;;;;;13.20;8.60;;;;;;;7.70;63.04;100289.19;4395607;32;33197;-78
2023/03/30 04:44:05;;;;;;;16.62;9.20;;;;;;;7.66;62.86;100282.94;4435634;32;35168;-77
2023/03/30 04:46:32;;;;;;;14.30;8.65;;;;;;;7.21;63.64;100277.50;4436713;32;34548;-78
2023/03/30 04:49:01;;;;;;;13.70;8.80;;;;;;;7.67;62.01;100279.59;4425342;32;33875;-79
2023/03/30 04:51:29;;;;;;;14.80;9.10;;;;;;;7.29;62.96;100275.41;4409053;32;34497;-76
2023/03/30 04:54:01;;;;;;;16.77;9.40;;;;;;;7.24;63.32;100269.97;4394521;32;33960;-77
2023/03/30 04:56:29;;;;;;;16.33;9.80;;;;;;;7.26;63.09;100264.91;4416996;32;33963;-78
2023/03/30 04:58:56;;;;;;;15.20;9.53;;;;;;;7.17;63.04;100261.75;4426526;32;34127;-77
2023/03/30 05:01:24;;;;;;;21.63;12.70;;;;;;;7.19;62.94;100263.63;4430761;32;33811;-77
2023/03/30 05:03:54;;;;;;;25.55;14.70;;;;;;;7.45;62.18;100267.00;4402702;32;33640;-79
2023/03/30 05:06:22;;;;;;;40.22;21.67;;;;;;;7.37;62.21;100268.19;4379290;32;34690;-76
2023/03/30 05:08:50;;;;;;;45.40;24.95;;;;;;;7.18;62.53;100261.81;4390262;32;33251;-78
2023/03/30 05:11:18;;;;;;;36.25;20.58;;;;;;;7.45;61.52;100264.41;4394009;32;33903;-77
2023/03/30 05:13:46;;;;;;;33.25;18.08;;;;;;;7.92;60.08;100268.22;4398442;32;33741;-78
2023/03/30 05:16:14;;;;;;;27.40;15.48;;;;;;;7.61;61.13;100269.78;4390691;32;34638;-77
2023/03/30 05:18:43;;;;;;;25.23;14.75;;;;;;;7.52;61.49;100270.87;4385920;32;33462;-76
2023/03/30 05:21:17;;;;;;;24.75;14.27;;;;;;;7.45;61.46;100272.16;4404276;32;31662;-77
2023/03/30 05:23:45;;;;;;;23.33;13.07;;;;;;;7.23;62.41;100264.72;4389750;32;34550;-76
2023/03/30 05:26:14;;;;;;;23.30;12.73;;;;;;;7.45;61.75;100256.69;4399383;32;33727;-77
2023/03/30 05:28:43;;;;;;;21.77;12.17;;;;;;;7.65;61.17;100270.87;4397274;32;34075;-76
2023/03/30 05:31:11;;;;;;;20.98;11.70;;;;;;;7.74;60.96;100275.69;4389266;32;34325;-78
2023/03/30 05:33:39;;;;;;;19.33;10.77;;;;;;;7.64;60.89;100269.97;4387119;32;32530;-76
2023/03/30 05:36:12;;;;;;;19.40;10.13;;;;;;;7.41;61.78;100265.00;4399165;32;33404;-76
2023/03/30 05:38:39;;;;;;;19.27;10.20;;;;;;;7.95;59.82;100264.16;4394559;32;33121;-77
2023/03/30 05:41:08;;;;;;;18.80;9.80;;;;;;;7.96;59.84;100259.88;4414760;32;33555;-77
2023/03/30 05:43:36;;;;;;;17.95;10.30;;;;;;;7.92;59.69;100256.25;4389060;32;34429;-76
2023/03/30 05:46:05;;;;;;;18.70;10.45;;;;;;;8.31;58.36;100256.91;4451856;32;34036;-78
2023/03/30 05:48:33;;;;;;;18.52;10.05;;;;;;;8.17;59.40;100257.75;4449702;32;33899;-76
2023/03/30 05:51:01;;;;;;;17.37;9.70;;;;;;;7.93;60.04;100258.00;4407510;32;33236;-77
2023/03/30 05:53:29;;;;;;;20.98;10.77;;;;;;;7.78;60.62;100264.78;4401170;32;33495;-76
2023/03/30 05:55:58;;;;;;;19.48;10.38;;;;;;;8.16;58.42;100272.34;4409594;32;33703;-77
2023/03/30 05:58:26;;;;;;;18.73;10.77;;;;;;;8.22;58.49;100282.16;4420329;32;33296;-78
2023/03/30 06:00:58;;;;;;;18.37;11.02;;;;;;;8.10;58.46;100271.09;4401014;32;33604;-77
2023/03/30 06:03:26;;;;;;;18.73;10.70;;;;;;;8.34;57.51;100272.56;4396953;32;33199;-77
2023/03/30 06:05:54;;;;;;;19.35;10.75;;;;;;;8.16;57.90;100271.47;4395151;32;33960;-77
2023/03/30 06:08:21;;;;;;;19.30;10.15;;;;;;;8.50;57.17;100266.72;4388638;32;33671;-77
2023/03/30 06:10:54;;;;;;;20.97;10.70;;;;;;;8.10;58.22;100260.75;4401854;32;33636;-77
2023/03/30 06:13:23;;;;;;;20.75;10.63;;;;;;;8.54;57.55;100260.03;4411453;32;33096;-77
2023/03/30 06:15:51;;;;;;;13.57;9.40;;;;;;;8.87;57.30;100255.97;4441738;32;33817;-77
2023/03/30 06:18:20;;;;;;;18.85;10.13;;;;;;;9.20;55.52;100249.28;4438411;32;33621;-76
2023/03/30 06:20:50;;;;;;;16.40;10.10;;;;;;;8.82;56.88;100239.31;4401839;32;35108;-75
2023/03/30 06:23:19;;;;;;;17.12;10.55;;;;;;;8.98;56.38;100246.25;4408763;32;33105;-77
2023/03/30 06:25:51;;;;;;;17.80;10.33;;;;;;;9.45;54.51;100237.75;4391554;32;33723;-77
2023/03/30 06:28:20;;;;;;;21.43;11.50;;;;;;;9.29;55.30;100237.69;4422821;32;33101;-78
2023/03/30 06:30:48;;;;;;;19.00;10.40;;;;;;;9.57;54.47;100242.72;4419074;32;33752;-77
2023/03/30 06:33:17;;;;;;;21.27;10.10;;;;;;;9.46;54.78;100229.19;4406160;32;33354;-77
2023/03/30 06:35:49;;;;;;;14.87;9.40;;;;;;;9.46;55.47;100231.75;4411672;32;33871;-77
2023/03/30 06:38:18;;;;;;;15.88;9.80;;;;;;;9.92;53.98;100221.38;4390306;32;33861;-76
2023/03/30 06:40:46;;;;;;;15.77;9.80;;;;;;;9.46;55.63;100224.00;4400974;32;34439;-77
2023/03/30 06:43:22;;;;;;;15.32;9.02;;;;;;;9.67;55.01;100215.66;4372623;32;33243;-77
2023/03/30 06:45:53;;;;;;;16.87;10.10;;;;;;;9.98;54.31;100224.28;4434652;32;33974;-77
2023/03/30 06:48:25;;;;;;;18.35;9.73;;;;;;;9.99;54.41;100223.47;4400934;32;33971;-77
2023/03/30 06:50:55;;;;;;;17.20;10.38;;;;;;;9.87;54.76;100222.84;4428055;32;33469;-76
2023/03/30 06:53:23;;;;;;;17.95;10.55;;;;;;;10.31;52.76;100219.13;4461427;32;33508;-77
2023/03/30 06:55:53;;;;;;;17.17;9.30;;;;;;;10.38;52.62;100226.44;4427723;32;34598;-79
2023/03/30 06:58:22;;;;;;;14.70;9.73;;;;;;;10.95;50.79;100218.06;4382329;32;32301;-78
2023/03/30 07:00:50;;;;;;;17.10;9.82;;;;;;;10.88;50.86;100231.56;4406710;32;33772;-76
2023/03/30 07:03:20;;;;;;;16.58;9.82;;;;;;;10.62;52.30;100229.41;4399828;32;32938;-78
2023/03/30 07:05:49;;;;;;;16.70;9.95;;;;;;;10.58;52.19;100234.34;4401531;32;33510;-76
2023/03/30 07:08:18;;;;;;;17.98;9.98;;;;;;;9.95;52.91;100242.25;4402650;32;33501;-76
2023/03/30 07:10:47;;;;;;;17.03;9.77;;;;;;;10.32;52.56;100244.25;4397328;32;33483;-78
2023/03/30 07:13:16;;;;;;;19.02;10.57;;;;;;;10.31;52.94;100242.44;4389522;32;33582;-77
2023/03/30 07:15:45;;;;;;;16.85;10.40;;;;;;;10.30;52.53;100240.69;4409453;32;33931;-77
2023/03/30 07:18:13;;;;;;;15.18;9.82;;;;;;;9.94;54.49;100230.09;4396878;32;33476;-77
2023/03/30 07:20:43;;;;;;;17.15;10.30;;;;;;;9.99;54.64;100239.00;4401277;32;33725;-77
2023/03/30 07:23:11;;;;;;;15.93;9.70;;;;;;;10.17;54.67;100244.28;4378080;32;31919;-78
2023/03/30 07:25:43;;;;;;;15.73;10.27;;;;;;;10.20;54.50;100246.16;4385826;32;32870;-77
2023/03/30 07:28:12;;;;;;;16.40;9.98;;;;;;;9.76;55.64;100244.63;4384857;32;33272;-77
2023/03/30 07:30:40;;;;;;;15.45;9.82;;;;;;;9.61;56.59;100244.66;4401799;32;33700;-78
2023/03/30 07:33:09;;;;;;;16.60;9.68;;;;;;;10.55;54.35;100241.97;4401975;32;33165;-78
2023/03/30 07:35:43;;;;;;;17.83;10.27;;;;;;;9.69;55.82;100239.91;4411686;32;33870;-77
2023/03/30 07:38:13;;;;;;;16.80;9.70;;;;;;;9.86;55.37;100235.69;4395972;32;32987;-79
2023/03/30 07:40:42;;;;;;;20.08;10.63;;;;;;;10.32;55.46;100228.72;4396202;32;33663;-77
2023/03/30 07:43:10;;;;;;;16.25;10.63;;;;;;;10.13;55.15;100220.75;4378503;32;32240;-78
2023/03/30 07:45:38;;;;;;;17.10;11.10;;;;;;;10.76;55.05;100224.94;4403609;32;34555;-77
2023/03/30 07:48:06;;;;;;;16.80;10.60;;;;;;;10.72;55.85;100233.37;4401854;32;33322;-77
2023/03/30 07:50:34;;;;;;;16.83;10.07;;;;;;;11.45;52.90;100243.00;4415293;32;33832;-80
2023/03/30 07:53:02;;;;;;;15.87;10.23;;;;;;;11.26;52.39;100245.50;4427108;32;33696;-77
2023/03/30 07:55:30;;;;;;;16.87;10.27;;;;;;;11.90;51.34;100243.44;4446438;32;33487;-78
2023/03/30 07:57:58;;;;;;;17.80;10.25;;;;;;;11.77;51.17;100246.25;4397633;32;33861;-77
2023/03/30 08:00:26;;;;;;;18.20;10.73;;;;;;;11.31;52.54;100236.25;4408365;32;34172;-79
2023/03/30 08:02:58;;;;;;;15.02;10.25;;;;;;;11.35;52.83;100225.22;4416784;32;32969;-78
2023/03/30 08:05:28;;;;;;;17.85;10.35;;;;;;;11.81;51.51;100214.41;4389699;32;35968;-78
2023/03/30 08:07:57;;;;;;;16.70;10.15;;;;;;;12.05;51.25;100206.00;4416025;32;33201;-79
2023/03/30 08:10:26;;;;;;;17.73;10.63;;;;;;;11.77;51.72;100209.91;4412264;32;33492;-77
2023/03/30 08:12:53;;;;;;;17.23;10.57;;;;;;;11.02;55.10;100212.38;4412932;32;33706;-78
2023/03/30 08:15:21;;;;;;;15.73;10.27;;;;;;;11.86;52.62;100212.94;4422099;32;34023;-78
2023/03/30 08:17:48;;;;;;;17.50;10.52;;;;;;;11.98;52.27;100213.53;4418554;32;33173;-80
2023/03/30 08:20:16;;;;;;;16.60;11.07;;;;;;;12.49;50.52;100214.88;4391754;32;33639;-77
2023/03/30 08:22:44;;;;;;;16.73;11.07;;;;;;;12.43;52.04;100199.91;4378419;32;34353;-77
2023/03/30 08:25:12;;;;;;;16.40;11.30;;;;;;;11.89;53.82;100210.50;4402089;32;33574;-76
2023/03/30 08:27:39;;;;;;;18.35;10.93;;;;;;;11.99;52.62;100215.31;4405400;32;32667;-82
2023/03/30 08:30:08;;;;;;;17.60;11.10;;;;;;;12.44;51.77;100211.19;4409849;32;33773;-76
2023/03/30 08:32:35;;;;;;;16.12;10.65;;;;;;;12.26;51.78;100219.06;4415834;32;34453;-78
2023/03/30 08:35:04;;;;;;;18.17;11.23;;;;;;;11.82;51.91;100216.22;4420433;32;33852;-78
2023/03/30 08:37:31;;;;;;;17.87;11.50;;;;;;;12.67;51.06;100213.09;4439357;32;33317;-78
2023/03/30 08:39:59;;;;;;;16.83;11.18;;;;;;;12.82;50.79;100209.38;4408747;32;33746;-77
2023/03/30 08:42:44;;;;;;;17.00;11.35;;;;;;;12.64;50.82;100219.87;4415766;32;33381;-76
2023/03/30 08:45:12;;;;;;;16.40;10.90;;;;;;;13.37;49.31;100222.09;4438460;32;33258;-78
2023/03/30 08:47:43;;;;;;;17.55;11.60;;;;;;;13.18;50.23;100205.69;4412781;32;34046;-78
2023/03/30 08:50:17;;;;;;;18.10;11.57;;;;;;;13.06;49.61;100205.19;4373860;32;32962;-78
2023/03/30 08:52:46;;;;;;;17.30;11.55;;;;;;;13.33;49.13;100214.97;4402650;32;32988;-78
2023/03/30 08:55:23;;;;;;;18.33;12.02;;;;;;;13.25;49.91;100211.13;4421653;32;33679;-79
2023/03/30 08:58:14;;;;;;;20.00;12.00;;;;;;;12.51;52.82;100214.13;4390706;32;31392;-78
2023/03/30 09:00:56;;;;;;;17.83;12.10;;;;;;;11.15;53.80;100206.09;4383033;32;33122;-80
2023/03/30 09:03:32;;;;;;;17.60;12.37;;;;;;;11.81;54.89;100201.44;4428893;32;33178;-77
2023/03/30 09:06:09;;;;;;;19.23;12.90;;;;;;;12.44;52.72;100201.72;4407209;32;33417;-81
2023/03/30 09:08:37;;;;;;;20.26;12.39;;;;;;;12.32;53.41;100202.06;4385247;32;32946;-78
2023/03/30 09:11:11;;;;;;;19.40;12.50;;;;;;;11.56;53.87;100208.06;4436447;32;34661;-77
2023/03/30 09:13:44;;;;;;;19.12;12.77;;;;;;;11.84;54.34;100198.09;4396314;32;32919;-79
2023/03/30 09:16:20;;;;;;;18.35;12.25;;;;;;;12.73;51.70;100192.56;4387339;32;34671;-77
2023/03/30 09:18:54;;;;;;;19.15;13.30;;;;;;;13.46;51.64;100193.84;4391510;32;32644;-77
2023/03/30 09:21:24;;;;;;;21.70;13.25;;;;;;;12.89;52.40;100190.59;4394026;32;34120;-80
2023/03/30 09:23:55;;;;;;;19.40;13.23;;;;;;;12.92;52.24;100182.91;4403962;32;33685;-78
2023/03/30 09:26:27;;;;;;;17.40;12.27;;;;;;;12.20;52.61;100186.78;4394777;32;33487;-79
2023/03/30 09:29:02;;;;;;;21.77;13.03;;;;;;;13.78;48.77;100178.56;4451734;32;33207;-79
2023/03/30 09:31:40;;;;;;;19.10;13.05;;;;;;;13.46;49.84;100175.63;4438251;32;33402;-80
2023/03/30 09:34:26;;;;;;;19.23;12.93;;;;;;;14.16;48.24;100163.47;4393750;32;33104;-77
2023/03/30 09:37:05;;;;;;;19.60;13.27;;;;;;;14.44;47.72;100156.63;4367158;32;33224;-79
2023/03/30 09:39:35;;;;;;;20.30;13.00;;;;;;;14.49;46.90;100157.66;4388243;32;32181;-78
2023/03/30 09:42:17;;;;;;;21.35;12.73;;;;;;;14.16;47.35;100150.44;4384223;32;33696;-77
2023/03/30 09:44:59;;;;;;;20.07;12.10;;;;;;;14.40;52.23;100142.59;4425064;32;32974;-79
2023/03/30 09:47:27;;;;;;;18.55;12.05;;;;;;;14.26;54.28;100136.91;4399046;32;33014;-80
2023/03/30 09:50:09;;;;;;;20.37;13.23;;;;;;;14.71;53.23;100141.06;4450022;32;35463;-78
2023/03/30 09:52:40;;;;;;;19.37;13.15;;;;;;;15.05;48.19;100130.00;4425924;32;32929;-79
2023/03/30 09:55:25;;;;;;;19.10;12.88;;;;;;;13.90;50.33;100132.13;4383882;32;33192;-76
2023/03/30 09:58:10;;;;;;;18.87;13.15;;;;;;;14.47;49.65;100130.66;4397978;32;33133;-76
2023/03/30 10:00:39;;;;;;;18.73;13.20;;;;;;;14.96;47.86;100123.62;4419859;32;33502;-78
2023/03/30 10:03:19;;;;;;;18.10;13.07;;;;;;;14.88;48.05;100123.38;4385018;32;34713;-80
2023/03/30 10:06:18;;;;;;;18.92;13.65;;;;;;;15.60;46.32;100111.66;4381193;32;32700;-79
2023/03/30 10:08:54;;;;;;;20.60;13.93;;;;;;;15.28;46.93;100120.28;4382462;32;33330;-79
2023/03/30 10:11:51;;;;;;;21.03;13.43;;;;;;;14.64;47.99;100119.13;4382113;32;32986;-81
2023/03/30 10:14:33;;;;;;;20.17;13.52;;;;;;;14.91;47.84;100128.66;4409840;32;33787;-80
2023/03/30 10:17:02;;;;;;;21.05;14.13;;;;;;;15.14;48.13;100117.25;4386849;32;33074;-80
2023/03/30 10:19:33;;;;;;;22.75;14.15;;;;;;;14.87;48.39;100121.59;4400928;32;34642;-79
2023/03/30 10:22:15;;;;;;;20.05;14.02;;;;;;;15.69;46.67;100123.25;4398161;32;32832;-78
2023/03/30 10:24:53;;;;;;;20.90;14.18;;;;;;;15.29;46.55;100124.66;4422270;32;32668;-77
2023/03/30 10:27:27;;;;;;;19.58;14.02;;;;;;;14.82;47.44;100111.00;4436764;32;32750;-79
2023/03/30 10:29:57;;;;;;;20.05;13.38;;;;;;;15.33;46.47;100094.31;4396429;32;34074;-78
2023/03/30 10:32:29;;;;;;;21.27;13.62;;;;;;;15.56;46.38;100089.78;4412236;32;33233;-77
2023/03/30 10:35:00;;;;;;;18.63;13.73;;;;;;;14.70;48.71;100089.75;4390292;32;33241;-80
2023/03/30 10:37:37;;;;;;;19.35;13.55;;;;;;;15.32;47.97;100074.31;4380800;32;33189;-77
2023/03/30 10:40:25;;;;;;;19.85;13.30;;;;;;;15.62;47.52;100076.03;4391128;32;33321;-79
2023/03/30 10:42:56;;;;;;;19.42;12.43;;;;;;;15.89;46.26;100070.72;4381670;32;33195;-78
2023/03/30 10:45:43;;;;;;;18.83;12.65;;;;;;;15.88;47.27;100067.25;4402791;32;33443;-79
2023/03/30 10:48:15;;;;;;;20.58;13.25;;;;;;;16.29;46.04;100067.44;4382139;32;33416;-78
2023/03/30 10:51:10;;;;;;;19.33;12.93;;;;;;;16.29;45.94;100070.06;4397245;32;33746;-81
2023/03/30 10:53:46;;;;;;;16.95;11.73;;;;;;;16.56;47.65;100066.38;4388133;32;33587;-80
2023/03/30 10:56:32;;;;;;;16.73;10.57;;;;;;;17.05;44.53;100062.34;4435318;32;33930;-80
2023/03/30 10:59:36;;;;;;;14.68;10.90;;;;;;;17.15;45.78;100049.47;4449502;32;33800;-79
2023/03/30 11:02:41;;;;;;;15.70;11.40;;;;;;;17.25;44.40;100041.84;4447488;32;32233;-83
2023/03/30 11:05:28;;;;;;;17.37;11.57;;;;;;;17.02;45.39;100043.97;4383460;32;33628;-83
2023/03/30 11:08:05;;;;;;;17.42;11.88;;;;;;;16.73;44.14;100044.97;4399557;32;33637;-78
2023/03/30 11:10:39;;;;;;;16.33;11.18;;;;;;;16.92;44.67;100049.84;4402439;32;33961;-81
2023/03/30 11:13:14;;;;;;;15.57;11.55;;;;;;;15.40;47.26;100051.91;4451769;32;32999;-79
2023/03/30 11:16:08;;;;;;;15.70;10.98;;;;;;;15.14;47.88;100058.94;4449821;32;33875;-80
2023/03/30 11:18:41;;;;;;;17.47;10.73;;;;;;;16.02;46.64;100045.84;4422005;32;32583;-81
2023/03/30 11:21:16;;;;;;;16.60;11.17;;;;;;;16.45;45.85;100041.69;4451656;32;33722;-79
2023/03/30 11:23:52;;;;;;;15.13;9.40;;;;;;;16.38;46.71;100037.16;4451391;32;33133;-78
2023/03/30 11:26:30;;;;;;;14.20;10.00;;;;;;;16.06;47.65;100037.22;4450421;32;32901;-80
2023/03/30 11:29:25;;;;;;;13.10;9.90;;;;;;;14.93;50.08;100039.22;4390539;32;33886;-79
2023/03/30 11:32:05;;;;;;;14.45;9.73;;;;;;;14.81;49.31;100032.72;4381486;32;32697;-83
2023/03/30 11:34:52;;;;;;;14.13;9.60;;;;;;;15.47;48.51;100021.62;4373694;32;33021;-80
2023/03/30 11:37:28;;;;;;;15.10;9.77;;;;;;;15.38;48.84;100016.19;4389193;32;32132;-81
2023/03/30 11:40:13;;;;;;;11.77;9.35;;;;;;;16.31;47.95;100016.09;4396821;32;32904;-83
2023/03/30 11:42:41;;;;;;;13.38;9.10;;;;;;;16.54;47.89;100007.94;4361174;32;32766;-80
2023/03/30 11:45:18;;;;;;;12.73;8.52;;;;;;;17.19;45.70;100006.78;4363268;32;33945;-79